Cabo Da Praia — CUSS7 — position and weather

sailwx.info

Track history (hours):
 
Tides and Currents Weather Stations Pressure Air Temp Water Temp Dewpoint Dewpoint Depression Visibility Wind Speed Wind Dir Waves Ship Positions

Cabo Da Praia

Last reported at 2017-Aug-22 05:35 UTC. Time now 2017-Sep-24 14:18 UTC.
Position N 32°44' W 016°38'.
Warning: this ship's position is 33 days out of date.

Length 25 m.

MMSI: 204851000.

Date/timePositionNaut miles runAvg speedWind from/ knotsBaromVisibWave heightAir tempDewpointWater temp
2017-Aug-22 05:35N 32°44' W 016°38'12 7.9
2017-Aug-22 04:01N 32°37' W 016°51'2 9.1
2017-Aug-22 03:49N 32°37' W 016°53'3 0.7
2017-Aug-21 23:21N 32°37' W 016°57'0 0.9
2017-Aug-21 23:00N 32°37' W 016°58'6 8.0
2017-Aug-21 22:15N 32°38' W 016°51'4 3.1
2017-Aug-21 21:05N 32°40' W 016°47'0 0.1
2017-Aug-21 20:45N 32°40' W 016°47'2 6.0
2017-Aug-21 20:28N 32°42' W 016°46'3 1.3
2017-Aug-21 18:13N 32°44' W 016°44'0 0.0
2017-Aug-21 17:53N 32°44' W 016°44'0 0.0
2017-Aug-21 17:16N 32°44' W 016°44'5 1.7
2017-Aug-21 14:07N 32°40' W 016°47'14 2.3
2017-Aug-21 07:56N 32°29' W 016°58'0 0.0
2017-Aug-21 06:02N 32°29' W 016°58'0 0.4
2017-Aug-21 05:58N 32°29' W 016°58'1 0.2
2017-Aug-21 02:46N 32°29' W 016°58'1 0.3
2017-Aug-20 22:05N 32°29' W 016°59'0 1.1
2017-Aug-20 22:00N 32°29' W 016°59'1 0.9
2017-Aug-20 21:26N 32°30' W 016°60'0 0.5
2017-Aug-20 20:24N 32°30' W 016°60'0 0.9
2017-Aug-20 20:00N 32°30' W 016°60'0 0.1
2017-Aug-20 19:17N 32°30' W 016°59'0 0.1
2017-Aug-20 15:38N 32°30' W 016°60'1 0.2
2017-Aug-20 11:23N 32°30' W 017°01'0 0.8
2017-Aug-20 10:49N 32°30' W 017°00'  
2017-Aug-17 18:58N 32°33' W 017°15'0 0.9
2017-Aug-17 18:30N 32°33' W 017°15'0 0.8
2017-Aug-17 17:59N 32°33' W 017°15'0 0.6
2017-Aug-17 17:19N 32°32' W 017°15'0 0.5
2017-Aug-17 17:00N 32°32' W 017°15'0 0.2
2017-Aug-17 14:39N 32°32' W 017°15'0 0.1
2017-Aug-17 14:28N 32°32' W 017°15'0 0.8
2017-Aug-17 13:56N 32°32' W 017°15'1 1.1
2017-Aug-17 13:17N 32°32' W 017°14'1 1.0
2017-Aug-17 11:53N 32°31' W 017°12'0 0.8
2017-Aug-17 11:30N 32°31' W 017°12'0 0.9
2017-Aug-17 11:00N 32°31' W 017°11'1 0.9
2017-Aug-17 09:55N 32°31' W 017°10'0 1.0
2017-Aug-17 09:30N 32°31' W 017°10'1 0.5
2017-Aug-17 07:38N 32°30' W 017°09'0 0.3
2017-Aug-17 07:17N 32°30' W 017°09'0 0.0
2017-Aug-17 06:30N 32°30' W 017°09'  
Track history (hours):
 
Tides and Currents Weather Stations Pressure Air Temp Water Temp Dewpoint Dewpoint Depression Visibility Wind Speed Wind Dir Waves Ship Positions

Cabo Da Praia

Last reported at 2017-Aug-22 05:35 UTC. Time now 2017-Sep-24 14:18 UTC.
Position N 32°44' W 016°38'.
Warning: this ship's position is 33 days out of date.

Length 25 m.

MMSI: 204851000.

Date/timePositionNaut miles runAvg speedWind from/ knotsBaromVisibWave heightAir tempDewpointWater temp
2017-Aug-22 05:35N 32°44' W 016°38'12 7.9
2017-Aug-22 04:01N 32°37' W 016°51'2 9.1
2017-Aug-22 03:49N 32°37' W 016°53'3 0.7
2017-Aug-21 23:21N 32°37' W 016°57'0 0.9
2017-Aug-21 23:00N 32°37' W 016°58'6 8.0
2017-Aug-21 22:15N 32°38' W 016°51'4 3.1
2017-Aug-21 21:05N 32°40' W 016°47'0 0.1
2017-Aug-21 20:45N 32°40' W 016°47'2 6.0
2017-Aug-21 20:28N 32°42' W 016°46'3 1.3
2017-Aug-21 18:13N 32°44' W 016°44'0 0.0
2017-Aug-21 17:53N 32°44' W 016°44'0 0.0
2017-Aug-21 17:16N 32°44' W 016°44'5 1.7
2017-Aug-21 14:07N 32°40' W 016°47'14 2.3
2017-Aug-21 07:56N 32°29' W 016°58'0 0.0
2017-Aug-21 06:02N 32°29' W 016°58'0 0.4
2017-Aug-21 05:58N 32°29' W 016°58'1 0.2
2017-Aug-21 02:46N 32°29' W 016°58'1 0.3
2017-Aug-20 22:05N 32°29' W 016°59'0 1.1
2017-Aug-20 22:00N 32°29' W 016°59'1 0.9
2017-Aug-20 21:26N 32°30' W 016°60'0 0.5
2017-Aug-20 20:24N 32°30' W 016°60'0 0.9
2017-Aug-20 20:00N 32°30' W 016°60'0 0.1
2017-Aug-20 19:17N 32°30' W 016°59'0 0.1
2017-Aug-20 15:38N 32°30' W 016°60'1 0.2
2017-Aug-20 11:23N 32°30' W 017°01'0 0.8
2017-Aug-20 10:49N 32°30' W 017°00'  
2017-Aug-17 18:58N 32°33' W 017°15'0 0.9
2017-Aug-17 18:30N 32°33' W 017°15'0 0.8
2017-Aug-17 17:59N 32°33' W 017°15'0 0.6
2017-Aug-17 17:19N 32°32' W 017°15'0 0.5
2017-Aug-17 17:00N 32°32' W 017°15'0 0.2
2017-Aug-17 14:39N 32°32' W 017°15'0 0.1
2017-Aug-17 14:28N 32°32' W 017°15'0 0.8
2017-Aug-17 13:56N 32°32' W 017°15'1 1.1
2017-Aug-17 13:17N 32°32' W 017°14'1 1.0
2017-Aug-17 11:53N 32°31' W 017°12'0 0.8
2017-Aug-17 11:30N 32°31' W 017°12'0 0.9
2017-Aug-17 11:00N 32°31' W 017°11'1 0.9
2017-Aug-17 09:55N 32°31' W 017°10'0 1.0
2017-Aug-17 09:30N 32°31' W 017°10'1 0.5
2017-Aug-17 07:38N 32°30' W 017°09'0 0.3
2017-Aug-17 07:17N 32°30' W 017°09'0 0.0
2017-Aug-17 06:30N 32°30' W 017°09'  

Dump ship's entire track history